Time;durP1;ratioP1;P1;durP2;ratioP2;P2;SDS_P1;SDS_P2;PMS_P1;PMS_P2;Temp;Humidity;BMP_temperature;BMP_pressure;BME280_temperature;BME280_humidity;BME280_pressure;Samples;Min_cycle;Max_cycle;Signal;HPM_P1;HPM_P2
2020/07/02 00:00:34;;;;;;;2.1;1.9;;;;;;;16.16;96.97656;94838.23;;;;
2020/07/02 00:01:35;;;;;;;2.1;1.9;;;;;;;16.16;96.97656;94838.23;;;;
2020/07/02 00:02:36;;;;;;;2.1;1.9;;;;;;;16.16;96.97656;94838.23;;;;
2020/07/02 00:03:37;;;;;;;2.1;1.9;;;;;;;16.16;96.97656;94838.23;;;;
2020/07/02 00:04:37;;;;;;;2.1;1.9;;;;;;;16.16;96.97656;94838.23;;;;
2020/07/02 00:05:37;;;;;;;2.1;1.9;;;;;;;16.16;96.97656;94838.23;;;;
2020/07/02 00:06:38;;;;;;;2.1;1.9;;;;;;;16.16;96.97656;94838.23;;;;
2020/07/02 00:07:39;;;;;;;2.1;1.9;;;;;;;16.16;96.97656;94838.23;;;;
2020/07/02 00:08:39;;;;;;;2.1;1.9;;;;;;;16.16;96.97656;94838.23;;;;
2020/07/02 00:09:40;;;;;;;2.7;2.1;;;;;;;16.23;97.86523;94834.66;;;;
2020/07/02 00:10:41;;;;;;;2.7;2.1;;;;;;;16.23;97.86523;94834.66;;;;
2020/07/02 00:11:41;;;;;;;2.7;2.1;;;;;;;16.23;97.86523;94834.66;;;;
2020/07/02 00:12:42;;;;;;;2.7;2.1;;;;;;;16.23;97.86523;94834.66;;;;
2020/07/02 00:13:43;;;;;;;2.7;2.1;;;;;;;16.23;97.86523;94834.66;;;;
2020/07/02 00:14:43;;;;;;;2.7;2.1;;;;;;;16.23;97.86523;94834.66;;;;
2020/07/02 00:15:44;;;;;;;2.7;2.1;;;;;;;16.23;97.86523;94834.66;;;;
2020/07/02 00:16:44;;;;;;;2.7;2.1;;;;;;;16.23;97.86523;94834.66;;;;
2020/07/02 00:17:45;;;;;;;2.7;2.1;;;;;;;16.23;97.86523;94834.66;;;;
2020/07/02 00:18:45;;;;;;;2.7;2.1;;;;;;;16.23;97.86523;94834.66;;;;
2020/07/02 00:19:46;;;;;;;3.1;2.3;;;;;;;16.43;98.74609;94842.42;;;;
2020/07/02 00:20:46;;;;;;;3.1;2.3;;;;;;;16.43;98.74609;94842.42;;;;
2020/07/02 00:21:46;;;;;;;3.1;2.3;;;;;;;16.43;98.74609;94842.42;;;;
2020/07/02 00:22:47;;;;;;;3.1;2.3;;;;;;;16.43;98.74609;94842.42;;;;
2020/07/02 00:23:47;;;;;;;3.1;2.3;;;;;;;16.43;98.74609;94842.42;;;;
2020/07/02 00:24:48;;;;;;;3.1;2.3;;;;;;;16.43;98.74609;94842.42;;;;
2020/07/02 00:25:48;;;;;;;3.1;2.3;;;;;;;16.43;98.74609;94842.42;;;;
2020/07/02 00:26:49;;;;;;;3.1;2.3;;;;;;;16.43;98.74609;94842.42;;;;
2020/07/02 00:27:49;;;;;;;3.1;2.3;;;;;;;16.43;98.74609;94842.42;;;;
2020/07/02 00:28:50;;;;;;;3.1;2.3;;;;;;;16.43;98.74609;94842.42;;;;
2020/07/02 00:29:50;;;;;;;3.1;2.3;;;;;;;16.43;98.74609;94842.42;;;;
2020/07/02 00:30:51;;;;;;;2.4;2.2;;;;;;;16.58;99.14551;94848.22;;;;
2020/07/02 00:31:51;;;;;;;2.4;2.2;;;;;;;16.58;99.14551;94848.22;;;;
2020/07/02 00:32:52;;;;;;;2.4;2.2;;;;;;;16.58;99.14551;94848.22;;;;
2020/07/02 00:33:52;;;;;;;2.4;2.2;;;;;;;16.58;99.14551;94848.22;;;;
2020/07/02 00:34:52;;;;;;;2.4;2.2;;;;;;;16.58;99.14551;94848.22;;;;
2020/07/02 00:35:53;;;;;;;2.4;2.2;;;;;;;16.58;99.14551;94848.22;;;;
2020/07/02 00:36:54;;;;;;;2.4;2.2;;;;;;;16.58;99.14551;94848.22;;;;
2020/07/02 00:37:54;;;;;;;2.4;2.2;;;;;;;16.58;99.14551;94848.22;;;;
2020/07/02 00:38:55;;;;;;;2.4;2.2;;;;;;;16.58;99.14551;94848.22;;;;
2020/07/02 00:39:55;;;;;;;2.4;2.2;;;;;;;16.58;99.14551;94848.22;;;;
2020/07/02 00:40:56;;;;;;;3.7;2.2;;;;;;;16.63;99.96582;94828.14;;;;
2020/07/02 00:41:56;;;;;;;3.7;2.2;;;;;;;16.63;99.96582;94828.14;;;;
2020/07/02 00:42:57;;;;;;;3.7;2.2;;;;;;;16.63;99.96582;94828.14;;;;
2020/07/02 00:43:57;;;;;;;3.7;2.2;;;;;;;16.63;99.96582;94828.14;;;;
2020/07/02 00:44:57;;;;;;;3.7;2.2;;;;;;;16.63;99.96582;94828.14;;;;
2020/07/02 00:45:58;;;;;;;3.7;2.2;;;;;;;16.63;99.96582;94828.14;;;;
2020/07/02 00:47:00;;;;;;;3.7;2.2;;;;;;;16.63;99.96582;94828.14;;;;
2020/07/02 00:48:01;;;;;;;3.7;2.2;;;;;;;16.63;99.96582;94828.14;;;;
2020/07/02 00:49:03;;;;;;;3.7;2.2;;;;;;;16.63;99.96582;94828.14;;;;
2020/07/02 00:50:04;;;;;;;3.7;2.2;;;;;;;16.63;99.96582;94828.14;;;;
2020/07/02 00:51:05;;;;;;;3.7;2.2;;;;;;;16.63;99.96582;94828.14;;;;
2020/07/02 00:52:05;;;;;;;2.4;2.2;;;;;;;16.64;100;94818.86;;;;
2020/07/02 00:53:06;;;;;;;2.4;2.2;;;;;;;16.64;100;94818.86;;;;
2020/07/02 00:54:07;;;;;;;2.4;2.2;;;;;;;16.64;100;94818.86;;;;
2020/07/02 00:55:07;;;;;;;2.4;2.2;;;;;;;16.64;100;94818.86;;;;
2020/07/02 00:56:08;;;;;;;2.4;2.2;;;;;;;16.64;100;94818.86;;;;
2020/07/02 00:57:09;;;;;;;2.4;2.2;;;;;;;16.64;100;94818.86;;;;
2020/07/02 00:58:10;;;;;;;2.4;2.2;;;;;;;16.64;100;94818.86;;;;
2020/07/02 00:59:11;;;;;;;2.4;2.2;;;;;;;16.64;100;94818.86;;;;
2020/07/02 01:00:11;;;;;;;2.4;2.2;;;;;;;16.64;100;94818.86;;;;
2020/07/02 01:01:12;;;;;;;2.4;2.2;;;;;;;16.64;100;94818.86;;;;
2020/07/02 01:02:13;;;;;;;3.2;2.15;;;;;;;16.56;100;94802.71;;;;
2020/07/02 01:03:14;;;;;;;3.2;2.15;;;;;;;16.56;100;94802.71;;;;
2020/07/02 01:04:14;;;;;;;3.2;2.15;;;;;;;16.56;100;94802.71;;;;
2020/07/02 01:05:15;;;;;;;3.2;2.15;;;;;;;16.56;100;94802.71;;;;
2020/07/02 01:06:15;;;;;;;3.2;2.15;;;;;;;16.56;100;94802.71;;;;
2020/07/02 01:07:16;;;;;;;3.2;2.15;;;;;;;16.56;100;94802.71;;;;
2020/07/02 01:08:16;;;;;;;3.2;2.15;;;;;;;16.56;100;94802.71;;;;
2020/07/02 01:09:17;;;;;;;3.2;2.15;;;;;;;16.56;100;94802.71;;;;
2020/07/02 01:10:18;;;;;;;3.2;2.15;;;;;;;16.56;100;94802.71;;;;
2020/07/02 01:11:18;;;;;;;3.2;2.15;;;;;;;16.56;100;94802.71;;;;
2020/07/02 01:12:19;;;;;;;3.2;2.15;;;;;;;16.56;100;94802.71;;;;
2020/07/02 01:13:19;;;;;;;2.8;2.4;;;;;;;16.54;100;94823.03;;;;
2020/07/02 01:14:20;;;;;;;2.8;2.4;;;;;;;16.54;100;94823.03;;;;
2020/07/02 01:15:20;;;;;;;2.8;2.4;;;;;;;16.54;100;94823.03;;;;
2020/07/02 01:16:21;;;;;;;2.8;2.4;;;;;;;16.54;100;94823.03;;;;
2020/07/02 01:17:21;;;;;;;2.8;2.4;;;;;;;16.54;100;94823.03;;;;
2020/07/02 01:18:22;;;;;;;2.8;2.4;;;;;;;16.54;100;94823.03;;;;
2020/07/02 01:19:22;;;;;;;2.8;2.4;;;;;;;16.54;100;94823.03;;;;
2020/07/02 01:20:23;;;;;;;2.8;2.4;;;;;;;16.54;100;94823.03;;;;
2020/07/02 01:21:25;;;;;;;2.8;2.4;;;;;;;16.54;100;94823.03;;;;
2020/07/02 01:22:26;;;;;;;2.8;2.4;;;;;;;16.54;100;94823.03;;;;
2020/07/02 01:23:27;;;;;;;3.4;2.4;;;;;;;16.54;100;94813.49;;;;
2020/07/02 01:24:28;;;;;;;3.4;2.4;;;;;;;16.54;100;94813.49;;;;
2020/07/02 01:25:28;;;;;;;3.4;2.4;;;;;;;16.54;100;94813.49;;;;
2020/07/02 01:26:29;;;;;;;3.4;2.4;;;;;;;16.54;100;94813.49;;;;
2020/07/02 01:27:29;;;;;;;3.4;2.4;;;;;;;16.54;100;94813.49;;;;
2020/07/02 01:28:30;;;;;;;3.4;2.4;;;;;;;16.54;100;94813.49;;;;
2020/07/02 01:29:31;;;;;;;3.4;2.4;;;;;;;16.54;100;94813.49;;;;
2020/07/02 01:30:31;;;;;;;3.4;2.4;;;;;;;16.54;100;94813.49;;;;
2020/07/02 01:31:32;;;;;;;3.4;2.4;;;;;;;16.54;100;94813.49;;;;
2020/07/02 01:32:32;;;;;;;3.4;2.4;;;;;;;16.54;100;94813.49;;;;
2020/07/02 01:33:33;;;;;;;3.4;2.4;;;;;;;16.54;100;94813.49;;;;
2020/07/02 01:34:34;;;;;;;3.1;2.5;;;;;;;16.78;100;94800.9;;;;
2020/07/02 01:35:34;;;;;;;3.1;2.5;;;;;;;16.78;100;94800.9;;;;
2020/07/02 01:36:35;;;;;;;3.1;2.5;;;;;;;16.78;100;94800.9;;;;
2020/07/02 01:37:36;;;;;;;3.1;2.5;;;;;;;16.78;100;94800.9;;;;
2020/07/02 01:38:36;;;;;;;3.1;2.5;;;;;;;16.78;100;94800.9;;;;
2020/07/02 01:39:37;;;;;;;3.1;2.5;;;;;;;16.78;100;94800.9;;;;
2020/07/02 01:40:37;;;;;;;3.1;2.5;;;;;;;16.78;100;94800.9;;;;
2020/07/02 01:41:38;;;;;;;3.1;2.5;;;;;;;16.78;100;94800.9;;;;
2020/07/02 01:42:38;;;;;;;3.1;2.5;;;;;;;16.78;100;94800.9;;;;
2020/07/02 01:43:38;;;;;;;3.1;2.5;;;;;;;16.78;100;94800.9;;;;
2020/07/02 01:44:39;;;;;;;2.75;2.2;;;;;;;16.99;100;94813.11;;;;
2020/07/02 01:45:40;;;;;;;2.75;2.2;;;;;;;16.99;100;94813.11;;;;
2020/07/02 01:46:40;;;;;;;2.75;2.2;;;;;;;16.99;100;94813.11;;;;
2020/07/02 01:47:41;;;;;;;2.75;2.2;;;;;;;16.99;100;94813.11;;;;
2020/07/02 01:48:41;;;;;;;2.75;2.2;;;;;;;16.99;100;94813.11;;;;
2020/07/02 01:49:42;;;;;;;2.75;2.2;;;;;;;16.99;100;94813.11;;;;
2020/07/02 01:50:42;;;;;;;2.75;2.2;;;;;;;16.99;100;94813.11;;;;
2020/07/02 01:51:42;;;;;;;2.75;2.2;;;;;;;16.99;100;94813.11;;;;
2020/07/02 01:52:43;;;;;;;2.75;2.2;;;;;;;16.99;100;94813.11;;;;
2020/07/02 01:53:43;;;;;;;2.75;2.2;;;;;;;16.99;100;94813.11;;;;
2020/07/02 01:54:44;;;;;;;2.75;2.2;;;;;;;16.99;100;94813.11;;;;
2020/07/02 01:55:44;;;;;;;3.4;2.15;;;;;;;17.24;100;94812.05;;;;
2020/07/02 01:56:45;;;;;;;3.4;2.15;;;;;;;17.24;100;94812.05;;;;
2020/07/02 01:57:45;;;;;;;3.4;2.15;;;;;;;17.24;100;94812.05;;;;
2020/07/02 01:58:46;;;;;;;3.4;2.15;;;;;;;17.24;100;94812.05;;;;
2020/07/02 01:59:46;;;;;;;3.4;2.15;;;;;;;17.24;100;94812.05;;;;
2020/07/02 02:00:47;;;;;;;3.4;2.15;;;;;;;17.24;100;94812.05;;;;
2020/07/02 02:01:47;;;;;;;3.4;2.15;;;;;;;17.24;100;94812.05;;;;
2020/07/02 02:02:48;;;;;;;3.4;2.15;;;;;;;17.24;100;94812.05;;;;
2020/07/02 02:03:48;;;;;;;3.4;2.15;;;;;;;17.24;100;94812.05;;;;
2020/07/02 02:04:49;;;;;;;3.4;2.15;;;;;;;17.24;100;94812.05;;;;
2020/07/02 02:05:49;;;;;;;2.2;2;;;;;;;17.34;100;94827.34;;;;
2020/07/02 02:06:50;;;;;;;2.2;2;;;;;;;17.34;100;94827.34;;;;
2020/07/02 02:07:50;;;;;;;2.2;2;;;;;;;17.34;100;94827.34;;;;
2020/07/02 02:08:51;;;;;;;2.2;2;;;;;;;17.34;100;94827.34;;;;
2020/07/02 02:09:51;;;;;;;2.2;2;;;;;;;17.34;100;94827.34;;;;
2020/07/02 02:10:52;;;;;;;2.2;2;;;;;;;17.34;100;94827.34;;;;
2020/07/02 02:11:52;;;;;;;2.2;2;;;;;;;17.34;100;94827.34;;;;
2020/07/02 02:12:52;;;;;;;2.2;2;;;;;;;17.34;100;94827.34;;;;
2020/07/02 02:13:53;;;;;;;2.2;2;;;;;;;17.34;100;94827.34;;;;
2020/07/02 02:14:53;;;;;;;2.2;2;;;;;;;17.34;100;94827.34;;;;
2020/07/02 02:15:54;;;;;;;2.2;2;;;;;;;17.34;100;94827.34;;;;
2020/07/02 02:16:55;;;;;;;4;2.2;;;;;;;17.39;100;94847.92;;;;
2020/07/02 02:17:56;;;;;;;4;2.2;;;;;;;17.39;100;94847.92;;;;
2020/07/02 02:18:58;;;;;;;4;2.2;;;;;;;17.39;100;94847.92;;;;
2020/07/02 02:19:59;;;;;;;4;2.2;;;;;;;17.39;100;94847.92;;;;
2020/07/02 02:21:00;;;;;;;4;2.2;;;;;;;17.39;100;94847.92;;;;
2020/07/02 02:22:01;;;;;;;4;2.2;;;;;;;17.39;100;94847.92;;;;
2020/07/02 02:23:02;;;;;;;4;2.2;;;;;;;17.39;100;94847.92;;;;
2020/07/02 02:24:03;;;;;;;4;2.2;;;;;;;17.39;100;94847.92;;;;
2020/07/02 02:25:03;;;;;;;4;2.2;;;;;;;17.39;100;94847.92;;;;
2020/07/02 02:26:04;;;;;;;4;2.2;;;;;;;17.39;100;94847.92;;;;
2020/07/02 02:27:04;;;;;;;2.9;2.3;;;;;;;17.31;100;94861.22;;;;
2020/07/02 02:28:05;;;;;;;2.9;2.3;;;;;;;17.31;100;94861.22;;;;
2020/07/02 02:29:06;;;;;;;2.9;2.3;;;;;;;17.31;100;94861.22;;;;
2020/07/02 02:30:07;;;;;;;2.9;2.3;;;;;;;17.31;100;94861.22;;;;
2020/07/02 02:31:07;;;;;;;2.9;2.3;;;;;;;17.31;100;94861.22;;;;
2020/07/02 02:32:08;;;;;;;2.9;2.3;;;;;;;17.31;100;94861.22;;;;
2020/07/02 02:33:08;;;;;;;2.9;2.3;;;;;;;17.31;100;94861.22;;;;
2020/07/02 02:34:09;;;;;;;2.9;2.3;;;;;;;17.31;100;94861.22;;;;
2020/07/02 02:35:09;;;;;;;2.9;2.3;;;;;;;17.31;100;94861.22;;;;
2020/07/02 02:36:10;;;;;;;2.9;2.3;;;;;;;17.31;100;94861.22;;;;
2020/07/02 02:37:11;;;;;;;2.9;2.3;;;;;;;17.31;100;94861.22;;;;
2020/07/02 02:38:11;;;;;;;3;2.2;;;;;;;17.3;100;94872.85;;;;
2020/07/02 02:39:12;;;;;;;3;2.2;;;;;;;17.3;100;94872.85;;;;
2020/07/02 02:40:12;;;;;;;3;2.2;;;;;;;17.3;100;94872.85;;;;
2020/07/02 02:41:13;;;;;;;3;2.2;;;;;;;17.3;100;94872.85;;;;
2020/07/02 02:42:13;;;;;;;3;2.2;;;;;;;17.3;100;94872.85;;;;
2020/07/02 02:43:14;;;;;;;3;2.2;;;;;;;17.3;100;94872.85;;;;
2020/07/02 02:44:14;;;;;;;3;2.2;;;;;;;17.3;100;94872.85;;;;
2020/07/02 02:45:15;;;;;;;3;2.2;;;;;;;17.3;100;94872.85;;;;
2020/07/02 02:46:16;;;;;;;3;2.2;;;;;;;17.3;100;94872.85;;;;
2020/07/02 02:47:16;;;;;;;3;2.2;;;;;;;17.3;100;94872.85;;;;
2020/07/02 02:48:17;;;;;;;2.85;2.1;;;;;;;17.27;100;94878.88;;;;
2020/07/02 02:49:17;;;;;;;2.85;2.1;;;;;;;17.27;100;94878.88;;;;
2020/07/02 02:50:19;;;;;;;2.85;2.1;;;;;;;17.27;100;94878.88;;;;
2020/07/02 02:51:19;;;;;;;2.85;2.1;;;;;;;17.27;100;94878.88;;;;
2020/07/02 02:52:20;;;;;;;2.85;2.1;;;;;;;17.27;100;94878.88;;;;
2020/07/02 02:53:20;;;;;;;2.85;2.1;;;;;;;17.27;100;94878.88;;;;
2020/07/02 02:54:21;;;;;;;2.85;2.1;;;;;;;17.27;100;94878.88;;;;
2020/07/02 02:55:22;;;;;;;2.85;2.1;;;;;;;17.27;100;94878.88;;;;
2020/07/02 02:56:22;;;;;;;2.85;2.1;;;;;;;17.27;100;94878.88;;;;
2020/07/02 02:57:22;;;;;;;2.85;2.1;;;;;;;17.27;100;94878.88;;;;
2020/07/02 02:58:23;;;;;;;2.85;2.1;;;;;;;17.27;100;94878.88;;;;
2020/07/02 02:59:23;;;;;;;1.8;1.7;;;;;;;17.28;100;94881.73;;;;
2020/07/02 03:00:24;;;;;;;1.8;1.7;;;;;;;17.28;100;94881.73;;;;
2020/07/02 03:01:24;;;;;;;1.8;1.7;;;;;;;17.28;100;94881.73;;;;
2020/07/02 03:02:25;;;;;;;1.8;1.7;;;;;;;17.28;100;94881.73;;;;
2020/07/02 03:03:25;;;;;;;1.8;1.7;;;;;;;17.28;100;94881.73;;;;
2020/07/02 03:04:26;;;;;;;1.8;1.7;;;;;;;17.28;100;94881.73;;;;
2020/07/02 03:05:26;;;;;;;1.8;1.7;;;;;;;17.28;100;94881.73;;;;
2020/07/02 03:06:27;;;;;;;1.8;1.7;;;;;;;17.28;100;94881.73;;;;
2020/07/02 03:07:27;;;;;;;1.8;1.7;;;;;;;17.28;100;94881.73;;;;
2020/07/02 03:08:28;;;;;;;1.8;1.7;;;;;;;17.28;100;94881.73;;;;
2020/07/02 03:09:28;;;;;;;2.15;1.9;;;;;;;17.25;100;94875.87;;;;
2020/07/02 03:10:29;;;;;;;2.15;1.9;;;;;;;17.25;100;94875.87;;;;
2020/07/02 03:11:29;;;;;;;2.15;1.9;;;;;;;17.25;100;94875.87;;;;
2020/07/02 03:12:30;;;;;;;2.15;1.9;;;;;;;17.25;100;94875.87;;;;
2020/07/02 03:13:30;;;;;;;2.15;1.9;;;;;;;17.25;100;94875.87;;;;
2020/07/02 03:14:31;;;;;;;2.15;1.9;;;;;;;17.25;100;94875.87;;;;
2020/07/02 03:15:31;;;;;;;2.15;1.9;;;;;;;17.25;100;94875.87;;;;
2020/07/02 03:16:32;;;;;;;2.15;1.9;;;;;;;17.25;100;94875.87;;;;
2020/07/02 03:17:33;;;;;;;2.15;1.9;;;;;;;17.25;100;94875.87;;;;
2020/07/02 03:18:33;;;;;;;2.15;1.9;;;;;;;17.25;100;94875.87;;;;
2020/07/02 03:19:34;;;;;;;2.15;1.9;;;;;;;17.25;100;94875.87;;;;
2020/07/02 03:20:34;;;;;;;2.3;2.1;;;;;;;17.26;100;94875.74;;;;
2020/07/02 03:21:35;;;;;;;2.3;2.1;;;;;;;17.26;100;94875.74;;;;
2020/07/02 03:22:35;;;;;;;2.3;2.1;;;;;;;17.26;100;94875.74;;;;
2020/07/02 03:23:36;;;;;;;2.3;2.1;;;;;;;17.26;100;94875.74;;;;
2020/07/02 03:24:36;;;;;;;2.3;2.1;;;;;;;17.26;100;94875.74;;;;
2020/07/02 03:25:37;;;;;;;2.3;2.1;;;;;;;17.26;100;94875.74;;;;
2020/07/02 03:26:38;;;;;;;2.3;2.1;;;;;;;17.26;100;94875.74;;;;
2020/07/02 03:27:38;;;;;;;2.3;2.1;;;;;;;17.26;100;94875.74;;;;
2020/07/02 03:28:39;;;;;;;2.3;2.1;;;;;;;17.26;100;94875.74;;;;
2020/07/02 03:29:40;;;;;;;2.3;2.1;;;;;;;17.26;100;94875.74;;;;
2020/07/02 03:30:40;;;;;;;2.1;1.85;;;;;;;17.2;100;94880.97;;;;
2020/07/02 03:31:41;;;;;;;2.1;1.85;;;;;;;17.2;100;94880.97;;;;
2020/07/02 03:32:41;;;;;;;2.1;1.85;;;;;;;17.2;100;94880.97;;;;
2020/07/02 03:33:42;;;;;;;2.1;1.85;;;;;;;17.2;100;94880.97;;;;
2020/07/02 03:34:42;;;;;;;2.1;1.85;;;;;;;17.2;100;94880.97;;;;
2020/07/02 03:35:43;;;;;;;2.1;1.85;;;;;;;17.2;100;94880.97;;;;
2020/07/02 03:36:43;;;;;;;2.1;1.85;;;;;;;17.2;100;94880.97;;;;
2020/07/02 03:37:44;;;;;;;2.1;1.85;;;;;;;17.2;100;94880.97;;;;
2020/07/02 03:38:44;;;;;;;2.1;1.85;;;;;;;17.2;100;94880.97;;;;
2020/07/02 03:39:45;;;;;;;2.1;1.85;;;;;;;17.2;100;94880.97;;;;
2020/07/02 03:40:45;;;;;;;2.1;1.85;;;;;;;17.2;100;94880.97;;;;
2020/07/02 03:41:46;;;;;;;2.25;2.05;;;;;;;17.2;100;94890.11;;;;
2020/07/02 03:42:47;;;;;;;2.25;2.05;;;;;;;17.2;100;94890.11;;;;
2020/07/02 03:43:48;;;;;;;2.25;2.05;;;;;;;17.2;100;94890.11;;;;
2020/07/02 03:44:49;;;;;;;2.25;2.05;;;;;;;17.2;100;94890.11;;;;
2020/07/02 03:45:50;;;;;;;2.25;2.05;;;;;;;17.2;100;94890.11;;;;
2020/07/02 03:46:53;;;;;;;2.25;2.05;;;;;;;17.2;100;94890.11;;;;
2020/07/02 03:48:04;;;;;;;2.25;2.05;;;;;;;17.2;100;94890.11;;;;
2020/07/02 03:49:06;;;;;;;2.25;2.05;;;;;;;17.2;100;94890.11;;;;
2020/07/02 03:50:07;;;;;;;2.25;2.05;;;;;;;17.2;100;94890.11;;;;
2020/07/02 03:51:07;;;;;;;2.25;2.05;;;;;;;17.2;100;94890.11;;;;
2020/07/02 03:52:17;;;;;;;2.6;2.25;;;;;;;17.14;100;94901.78;;;;
2020/07/02 03:53:18;;;;;;;2.6;2.25;;;;;;;17.14;100;94901.78;;;;
2020/07/02 03:54:19;;;;;;;2.6;2.25;;;;;;;17.14;100;94901.78;;;;
2020/07/02 03:55:19;;;;;;;2.6;2.25;;;;;;;17.14;100;94901.78;;;;
2020/07/02 03:56:21;;;;;;;2.6;2.25;;;;;;;17.14;100;94901.78;;;;
2020/07/02 03:57:22;;;;;;;2.6;2.25;;;;;;;17.14;100;94901.78;;;;
2020/07/02 03:58:29;;;;;;;2.6;2.25;;;;;;;17.14;100;94901.78;;;;
2020/07/02 03:59:34;;;;;;;2.6;2.25;;;;;;;17.14;100;94901.78;;;;
2020/07/02 04:00:35;;;;;;;2.6;2.25;;;;;;;17.14;100;94901.78;;;;
2020/07/02 04:01:35;;;;;;;2.6;2.25;;;;;;;17.14;100;94901.78;;;;
2020/07/02 04:02:38;;;;;;;3.55;2.35;;;;;;;17.16;100;94905.04;;;;
2020/07/02 04:03:39;;;;;;;3.55;2.35;;;;;;;17.16;100;94905.04;;;;
2020/07/02 04:04:39;;;;;;;3.55;2.35;;;;;;;17.16;100;94905.04;;;;
2020/07/02 04:05:40;;;;;;;3.55;2.35;;;;;;;17.16;100;94905.04;;;;
2020/07/02 04:06:41;;;;;;;3.55;2.35;;;;;;;17.16;100;94905.04;;;;
2020/07/02 04:07:42;;;;;;;3.55;2.35;;;;;;;17.16;100;94905.04;;;;
2020/07/02 04:08:43;;;;;;;3.55;2.35;;;;;;;17.16;100;94905.04;;;;
2020/07/02 04:09:44;;;;;;;3.55;2.35;;;;;;;17.16;100;94905.04;;;;
2020/07/02 04:10:45;;;;;;;3.55;2.35;;;;;;;17.16;100;94905.04;;;;
2020/07/02 04:11:45;;;;;;;3.55;2.35;;;;;;;17.16;100;94905.04;;;;
2020/07/02 04:12:47;;;;;;;3.55;2.35;;;;;;;17.16;100;94905.04;;;;
2020/07/02 04:13:48;;;;;;;6;2.85;;;;;;;17.23;100;94900.48;;;;
2020/07/02 04:14:49;;;;;;;6;2.85;;;;;;;17.23;100;94900.48;;;;
2020/07/02 04:15:50;;;;;;;6;2.85;;;;;;;17.23;100;94900.48;;;;
2020/07/02 04:16:50;;;;;;;6;2.85;;;;;;;17.23;100;94900.48;;;;
2020/07/02 04:17:52;;;;;;;6;2.85;;;;;;;17.23;100;94900.48;;;;
2020/07/02 04:18:53;;;;;;;6;2.85;;;;;;;17.23;100;94900.48;;;;
2020/07/02 04:19:53;;;;;;;6;2.85;;;;;;;17.23;100;94900.48;;;;
2020/07/02 04:20:54;;;;;;;6;2.85;;;;;;;17.23;100;94900.48;;;;
2020/07/02 04:21:54;;;;;;;6;2.85;;;;;;;17.23;100;94900.48;;;;
2020/07/02 04:22:55;;;;;;;6;2.85;;;;;;;17.23;100;94900.48;;;;
2020/07/02 04:23:55;;;;;;;3.55;2.4;;;;;;;17.42;100;94908.2;;;;
2020/07/02 04:24:56;;;;;;;3.55;2.4;;;;;;;17.42;100;94908.2;;;;
2020/07/02 04:25:56;;;;;;;3.55;2.4;;;;;;;17.42;100;94908.2;;;;
2020/07/02 04:26:57;;;;;;;3.55;2.4;;;;;;;17.42;100;94908.2;;;;
2020/07/02 04:27:57;;;;;;;3.55;2.4;;;;;;;17.42;100;94908.2;;;;
2020/07/02 04:28:58;;;;;;;3.55;2.4;;;;;;;17.42;100;94908.2;;;;
2020/07/02 04:29:58;;;;;;;3.55;2.4;;;;;;;17.42;100;94908.2;;;;
2020/07/02 04:30:59;;;;;;;3.55;2.4;;;;;;;17.42;100;94908.2;;;;
2020/07/02 04:31:59;;;;;;;3.55;2.4;;;;;;;17.42;100;94908.2;;;;
2020/07/02 04:33:00;;;;;;;3.55;2.4;;;;;;;17.42;100;94908.2;;;;
2020/07/02 04:34:00;;;;;;;3.55;2.4;;;;;;;17.42;100;94908.2;;;;
2020/07/02 04:35:01;;;;;;;2.55;2.35;;;;;;;17.58;100;94922;;;;
2020/07/02 04:36:01;;;;;;;2.55;2.35;;;;;;;17.58;100;94922;;;;
2020/07/02 04:37:02;;;;;;;2.55;2.35;;;;;;;17.58;100;94922;;;;
2020/07/02 04:38:02;;;;;;;2.55;2.35;;;;;;;17.58;100;94922;;;;
2020/07/02 04:39:03;;;;;;;2.55;2.35;;;;;;;17.58;100;94922;;;;
2020/07/02 04:40:04;;;;;;;2.55;2.35;;;;;;;17.58;100;94922;;;;
2020/07/02 04:41:05;;;;;;;2.55;2.35;;;;;;;17.58;100;94922;;;;
2020/07/02 04:42:05;;;;;;;2.55;2.35;;;;;;;17.58;100;94922;;;;
2020/07/02 04:43:06;;;;;;;2.55;2.35;;;;;;;17.58;100;94922;;;;
2020/07/02 04:44:06;;;;;;;2.55;2.35;;;;;;;17.58;100;94922;;;;
2020/07/02 04:45:07;;;;;;;2.7;2.1;;;;;;;17.74;100;94925.37;;;;
2020/07/02 04:46:07;;;;;;;2.7;2.1;;;;;;;17.74;100;94925.37;;;;
2020/07/02 04:47:08;;;;;;;2.7;2.1;;;;;;;17.74;100;94925.37;;;;
2020/07/02 04:48:08;;;;;;;2.7;2.1;;;;;;;17.74;100;94925.37;;;;
2020/07/02 04:49:09;;;;;;;2.7;2.1;;;;;;;17.74;100;94925.37;;;;
2020/07/02 04:50:10;;;;;;;2.7;2.1;;;;;;;17.74;100;94925.37;;;;
2020/07/02 04:51:10;;;;;;;2.7;2.1;;;;;;;17.74;100;94925.37;;;;
2020/07/02 04:52:11;;;;;;;2.7;2.1;;;;;;;17.74;100;94925.37;;;;
2020/07/02 04:53:11;;;;;;;2.7;2.1;;;;;;;17.74;100;94925.37;;;;
2020/07/02 04:54:12;;;;;;;2.7;2.1;;;;;;;17.74;100;94925.37;;;;
2020/07/02 04:55:12;;;;;;;2.7;2.1;;;;;;;17.74;100;94925.37;;;;
2020/07/02 04:56:13;;;;;;;3.8;1.9;;;;;;;17.69;100;94929.94;;;;
2020/07/02 04:57:13;;;;;;;3.8;1.9;;;;;;;17.69;100;94929.94;;;;
2020/07/02 04:58:14;;;;;;;3.8;1.9;;;;;;;17.69;100;94929.94;;;;
2020/07/02 04:59:14;;;;;;;3.8;1.9;;;;;;;17.69;100;94929.94;;;;
2020/07/02 05:00:15;;;;;;;3.8;1.9;;;;;;;17.69;100;94929.94;;;;
2020/07/02 05:01:16;;;;;;;3.8;1.9;;;;;;;17.69;100;94929.94;;;;
2020/07/02 05:02:17;;;;;;;3.8;1.9;;;;;;;17.69;100;94929.94;;;;
2020/07/02 05:03:18;;;;;;;3.8;1.9;;;;;;;17.69;100;94929.94;;;;
2020/07/02 05:04:18;;;;;;;3.8;1.9;;;;;;;17.69;100;94929.94;;;;
2020/07/02 05:05:19;;;;;;;3.8;1.9;;;;;;;17.69;100;94929.94;;;;
2020/07/02 05:06:19;;;;;;;2.1;2;;;;;;;17.74;100;94914.33;;;;
2020/07/02 05:07:20;;;;;;;2.1;2;;;;;;;17.74;100;94914.33;;;;
2020/07/02 05:08:20;;;;;;;2.1;2;;;;;;;17.74;100;94914.33;;;;
2020/07/02 05:09:21;;;;;;;2.1;2;;;;;;;17.74;100;94914.33;;;;
2020/07/02 05:10:21;;;;;;;2.1;2;;;;;;;17.74;100;94914.33;;;;
2020/07/02 05:11:21;;;;;;;2.1;2;;;;;;;17.74;100;94914.33;;;;
2020/07/02 05:12:22;;;;;;;2.1;2;;;;;;;17.74;100;94914.33;;;;
2020/07/02 05:13:22;;;;;;;2.1;2;;;;;;;17.74;100;94914.33;;;;
2020/07/02 05:14:23;;;;;;;2.1;2;;;;;;;17.74;100;94914.33;;;;
2020/07/02 05:15:23;;;;;;;2.1;2;;;;;;;17.74;100;94914.33;;;;
2020/07/02 05:16:24;;;;;;;2.1;2;;;;;;;17.74;100;94914.33;;;;
2020/07/02 05:17:24;;;;;;;3;2.05;;;;;;;17.89;100;94922.5;;;;
2020/07/02 05:18:25;;;;;;;3;2.05;;;;;;;17.89;100;94922.5;;;;
2020/07/02 05:19:25;;;;;;;3;2.05;;;;;;;17.89;100;94922.5;;;;
2020/07/02 05:20:26;;;;;;;3;2.05;;;;;;;17.89;100;94922.5;;;;
2020/07/02 05:21:26;;;;;;;3;2.05;;;;;;;17.89;100;94922.5;;;;
2020/07/02 05:22:27;;;;;;;3;2.05;;;;;;;17.89;100;94922.5;;;;
2020/07/02 05:23:27;;;;;;;3;2.05;;;;;;;17.89;100;94922.5;;;;
2020/07/02 05:24:28;;;;;;;3;2.05;;;;;;;17.89;100;94922.5;;;;
2020/07/02 05:25:28;;;;;;;3;2.05;;;;;;;17.89;100;94922.5;;;;
2020/07/02 05:26:29;;;;;;;3;2.05;;;;;;;17.89;100;94922.5;;;;
2020/07/02 05:27:29;;;;;;;2;1.8;;;;;;;18.11;100;94911.3;;;;
2020/07/02 05:28:30;;;;;;;2;1.8;;;;;;;18.11;100;94911.3;;;;
2020/07/02 05:29:30;;;;;;;2;1.8;;;;;;;18.11;100;94911.3;;;;
2020/07/02 05:30:32;;;;;;;2;1.8;;;;;;;18.11;100;94911.3;;;;
2020/07/02 05:31:32;;;;;;;2;1.8;;;;;;;18.11;100;94911.3;;;;
2020/07/02 05:32:33;;;;;;;2;1.8;;;;;;;18.11;100;94911.3;;;;
2020/07/02 05:33:33;;;;;;;2;1.8;;;;;;;18.11;100;94911.3;;;;
2020/07/02 05:34:34;;;;;;;2;1.8;;;;;;;18.11;100;94911.3;;;;
2020/07/02 05:35:34;;;;;;;2;1.8;;;;;;;18.11;100;94911.3;;;;
2020/07/02 05:36:34;;;;;;;2;1.8;;;;;;;18.11;100;94911.3;;;;
2020/07/02 05:37:35;;;;;;;2;1.8;;;;;;;18.11;100;94911.3;;;;
2020/07/02 05:38:35;;;;;;;2.2;2;;;;;;;18.36;100;94920.29;;;;
2020/07/02 05:39:36;;;;;;;2.2;2;;;;;;;18.36;100;94920.29;;;;
2020/07/02 05:40:37;;;;;;;2.2;2;;;;;;;18.36;100;94920.29;;;;
2020/07/02 05:41:37;;;;;;;2.2;2;;;;;;;18.36;100;94920.29;;;;
2020/07/02 05:42:38;;;;;;;2.2;2;;;;;;;18.36;100;94920.29;;;;
2020/07/02 05:43:39;;;;;;;2.2;2;;;;;;;18.36;100;94920.29;;;;
2020/07/02 05:44:39;;;;;;;2.2;2;;;;;;;18.36;100;94920.29;;;;
2020/07/02 05:45:40;;;;;;;2.2;2;;;;;;;18.36;100;94920.29;;;;
2020/07/02 05:46:41;;;;;;;2.2;2;;;;;;;18.36;100;94920.29;;;;
2020/07/02 05:47:42;;;;;;;2.2;2;;;;;;;18.36;100;94920.29;;;;
2020/07/02 05:48:43;;;;;;;2.2;2;;;;;;;18.36;100;94920.29;;;;
2020/07/02 05:49:43;;;;;;;2.2;2;;;;;;;18.36;100;94920.29;;;;
2020/07/02 05:50:44;;;;;;;2.2;2;;;;;;;18.36;100;94920.29;;;;
2020/07/02 05:51:44;;;;;;;2.2;2;;;;;;;18.36;100;94920.29;;;;
2020/07/02 05:52:45;;;;;;;2.2;2;;;;;;;18.36;100;94920.29;;;;
2020/07/02 05:53:46;;;;;;;2.2;2;;;;;;;18.36;100;94920.29;;;;
2020/07/02 05:54:46;;;;;;;2.2;2;;;;;;;18.36;100;94920.29;;;;
2020/07/02 05:55:47;;;;;;;2.2;2;;;;;;;18.36;100;94920.29;;;;
2020/07/02 05:56:48;;;;;;;2.2;2;;;;;;;18.36;100;94920.29;;;;
2020/07/02 05:57:49;;;;;;;2.2;2;;;;;;;18.36;100;94920.29;;;;
2020/07/02 05:58:49;;;;;;;2.2;2;;;;;;;18.36;100;94920.29;;;;
2020/07/02 05:59:50;;;;;;;3.35;1.9;;;;;;;19.28;100;94931.27;;;;
2020/07/02 06:00:50;;;;;;;3.35;1.9;;;;;;;19.28;100;94931.27;;;;
2020/07/02 06:01:51;;;;;;;3.35;1.9;;;;;;;19.28;100;94931.27;;;;
2020/07/02 06:02:52;;;;;;;3.35;1.9;;;;;;;19.28;100;94931.27;;;;
2020/07/02 06:03:53;;;;;;;3.35;1.9;;;;;;;19.28;100;94931.27;;;;
2020/07/02 06:04:54;;;;;;;3.35;1.9;;;;;;;19.28;100;94931.27;;;;
2020/07/02 06:05:55;;;;;;;3.35;1.9;;;;;;;19.28;100;94931.27;;;;
2020/07/02 06:06:55;;;;;;;3.35;1.9;;;;;;;19.28;100;94931.27;;;;
2020/07/02 06:07:56;;;;;;;3.35;1.9;;;;;;;19.28;100;94931.27;;;;
2020/07/02 06:08:57;;;;;;;3.35;1.9;;;;;;;19.28;100;94931.27;;;;
2020/07/02 06:09:57;;;;;;;2.6;1.8;;;;;;;19.44;100;94934.62;;;;
2020/07/02 06:10:58;;;;;;;2.6;1.8;;;;;;;19.44;100;94934.62;;;;
2020/07/02 06:11:59;;;;;;;2.6;1.8;;;;;;;19.44;100;94934.62;;;;
2020/07/02 06:12:59;;;;;;;2.6;1.8;;;;;;;19.44;100;94934.62;;;;
2020/07/02 06:14:00;;;;;;;2.6;1.8;;;;;;;19.44;100;94934.62;;;;
2020/07/02 06:15:00;;;;;;;2.6;1.8;;;;;;;19.44;100;94934.62;;;;
2020/07/02 06:16:01;;;;;;;2.6;1.8;;;;;;;19.44;100;94934.62;;;;
2020/07/02 06:17:02;;;;;;;2.6;1.8;;;;;;;19.44;100;94934.62;;;;
2020/07/02 06:18:03;;;;;;;2.6;1.8;;;;;;;19.44;100;94934.62;;;;
2020/07/02 06:19:04;;;;;;;2.6;1.8;;;;;;;19.44;100;94934.62;;;;